Time;durP1;ratioP1;P1;durP2;ratioP2;P2;SDS_P1;SDS_P2;PMS_P1;PMS_P2;Temp;Humidity;BMP_temperature;BMP_pressure;BME280_temperature;BME280_humidity;BME280_pressure;Samples;Min_cycle;Max_cycle;Signal;HPM_P1;HPM_P2
2020/12/02 00:02:19;;;;;;;18.85;9.18;;;6.00;99.90;;;;;;5026515;28;20034;-84
2020/12/02 00:04:45;;;;;;;19.88;10.57;;;6.00;99.90;;;;;;5026960;28;20097;-84
2020/12/02 00:07:11;;;;;;;17.33;8.35;;;5.90;99.90;;;;;;5009850;28;20058;-85
2020/12/02 00:09:37;;;;;;;17.70;9.63;;;6.00;99.90;;;;;;5026508;28;20032;-83
2020/12/02 00:12:03;;;;;;;14.25;7.68;;;6.00;99.90;;;;;;5025854;28;20037;-84
2020/12/02 00:14:30;;;;;;;17.55;9.05;;;5.90;99.90;;;;;;5010291;28;20037;-84
2020/12/02 00:16:57;;;;;;;16.45;8.75;;;6.00;99.90;;;;;;5009856;28;20045;-84
2020/12/02 00:19:23;;;;;;;17.50;8.77;;;6.00;99.90;;;;;;5026380;28;20030;-84
2020/12/02 00:22:01;;;;;;;17.45;8.88;;;5.90;99.90;;;;;;5009884;28;20061;-84
2020/12/02 00:24:27;;;;;;;16.63;8.85;;;6.00;99.90;;;;;;5026628;28;20038;-83
2020/12/02 00:26:53;;;;;;;16.65;8.60;;;5.90;99.90;;;;;;5009925;28;20057;-84
2020/12/02 00:29:18;;;;;;;21.00;10.73;;;5.90;99.90;;;;;;5026157;28;20034;-85
2020/12/02 00:31:44;;;;;;;17.58;8.10;;;5.90;99.90;;;;;;5009855;28;20030;-84
2020/12/02 00:34:10;;;;;;;22.33;12.15;;;5.90;99.90;;;;;;5009331;28;20022;-85
2020/12/02 00:36:38;;;;;;;19.65;9.50;;;5.90;99.90;;;;;;5009694;28;20514;-84
2020/12/02 00:39:04;;;;;;;19.17;9.50;;;5.90;99.90;;;;;;5009587;28;20089;-86
2020/12/02 00:41:30;;;;;;;20.30;10.38;;;5.90;99.90;;;;;;5009505;28;20064;-86
2020/12/02 00:43:55;;;;;;;17.30;8.20;;;5.90;99.90;;;;;;5009372;28;20036;-85
2020/12/02 00:46:21;;;;;;;18.13;8.55;;;5.90;99.90;;;;;;5026007;28;20042;-85
2020/12/02 00:48:51;;;;;;;18.55;9.27;;;5.90;99.90;;;;;;5009225;28;20030;-84
2020/12/02 00:51:17;;;;;;;17.27;8.45;;;5.90;99.90;;;;;;5025598;28;20034;-84
2020/12/02 00:53:43;;;;;;;17.40;9.07;;;5.90;99.90;;;;;;5009488;28;20026;-84
2020/12/02 00:56:11;;;;;;;19.42;9.25;;;5.90;99.90;;;;;;5025674;28;20030;-83
2020/12/02 00:59:19;;;;;;;20.13;9.63;;;5.90;99.90;;;;;;5010058;28;20042;-84
2020/12/02 01:02:00;;;;;;;22.20;10.65;;;5.90;99.90;;;;;;4997743;28;20177;-83
2020/12/02 01:04:26;;;;;;;21.70;10.90;;;5.80;99.90;;;;;;5025342;28;20042;-84
2020/12/02 01:06:54;;;;;;;19.55;9.27;;;5.90;99.90;;;;;;5009121;28;20054;-83
2020/12/02 01:09:20;;;;;;;19.25;10.52;;;5.90;99.90;;;;;;5025531;28;20125;-85
2020/12/02 01:11:48;;;;;;;17.48;8.52;;;5.90;99.90;;;;;;5008913;28;20037;-83
2020/12/02 01:14:16;;;;;;;22.02;10.23;;;5.90;99.90;;;;;;5008935;28;20036;-84
2020/12/02 01:16:45;;;;;;;20.33;10.02;;;5.90;99.90;;;;;;5008850;28;20046;-85
2020/12/02 01:19:14;;;;;;;22.65;10.55;;;5.80;99.90;;;;;;5025201;28;20021;-86
2020/12/02 01:22:01;;;;;;;24.95;10.30;;;5.90;99.90;;;;;;5009001;28;20089;-84
2020/12/02 01:24:29;;;;;;;18.98;8.90;;;5.90;99.90;;;;;;5024723;28;20030;-84
2020/12/02 01:27:04;;;;;;;21.70;10.02;;;5.90;99.90;;;;;;5009169;28;20080;-85
2020/12/02 01:29:30;;;;;;;20.67;9.00;;;5.80;99.90;;;;;;5008978;28;20034;-84
2020/12/02 01:31:57;;;;;;;19.02;8.43;;;5.80;99.90;;;;;;5008718;28;20033;-83
2020/12/02 01:34:25;;;;;;;22.10;10.48;;;5.90;99.90;;;;;;5008380;28;20040;-84
2020/12/02 01:37:05;;;;;;;25.88;11.20;;;5.90;99.90;;;;;;5025051;28;20042;-84
2020/12/02 01:39:46;;;;;;;23.30;10.52;;;5.90;99.90;;;;;;5009113;28;20425;-85
2020/12/02 01:42:12;;;;;;;;;;;5.80;99.90;;;;;;5025724;28;20053;-84
2020/12/02 01:44:39;;;;;;;24.23;9.73;;;5.80;99.90;;;;;;5009388;28;19945;-84
2020/12/02 01:47:24;;;;;;;24.70;10.38;;;5.80;99.90;;;;;;5008579;28;20034;-84
2020/12/02 01:50:02;;;;;;;23.15;10.90;;;5.80;99.90;;;;;;5008525;28;20026;-84
2020/12/02 01:52:56;;;;;;;21.17;9.40;;;5.80;99.90;;;;;;5008625;28;20068;-84
2020/12/02 01:55:29;;;;;;;20.25;8.65;;;5.80;99.90;;;;;;5006506;28;20050;-84
2020/12/02 01:58:01;;;;;;;21.83;9.82;;;5.80;99.90;;;;;;5008466;28;20042;-86
2020/12/02 02:00:31;;;;;;;24.17;10.30;;;5.80;99.90;;;;;;5008327;28;20057;-87
2020/12/02 02:03:33;;;;;;;21.83;9.88;;;5.80;99.90;;;;;;5008544;28;20039;-84
2020/12/02 02:06:04;;;;;;;20.25;9.43;;;5.80;99.90;;;;;;4942874;28;20042;-84
2020/12/02 02:08:32;;;;;;;26.20;11.32;;;5.80;99.90;;;;;;5008201;28;20030;-84
2020/12/02 02:11:00;;;;;;;21.90;10.30;;;5.80;99.90;;;;;;5024586;28;20402;-83
2020/12/02 02:14:04;;;;;;;23.80;10.15;;;5.80;99.90;;;;;;5008267;28;20029;-85
2020/12/02 02:16:32;;;;;;;21.83;9.40;;;5.80;99.90;;;;;;5008148;28;20110;-83
2020/12/02 02:18:59;;;;;;;21.85;10.15;;;5.80;99.90;;;;;;5008234;28;20137;-83
2020/12/02 02:21:32;;;;;;;20.00;9.68;;;5.80;99.90;;;;;;5008044;28;20030;-84
2020/12/02 02:23:58;;;;;;;21.85;9.50;;;5.80;99.90;;;;;;5024619;28;20081;-84
2020/12/02 02:26:32;;;;;;;19.60;7.90;;;5.80;99.90;;;;;;5008229;28;20025;-86
2020/12/02 02:29:19;;;;;;;12.75;6.75;;;5.80;99.90;;;;;;5008138;28;20034;-84
2020/12/02 02:32:13;;;;;;;16.25;6.72;;;5.80;99.90;;;;;;5008074;28;20038;-83
2020/12/02 02:34:45;;;;;;;17.95;6.80;;;5.80;99.90;;;;;;5008792;28;20125;-86
2020/12/02 02:37:13;;;;;;;15.00;6.68;;;5.80;99.90;;;;;;5011944;28;20042;-85
2020/12/02 02:39:39;;;;;;;16.98;6.60;;;5.80;99.90;;;;;;5028232;28;20030;-84
2020/12/02 02:42:22;;;;;;;17.73;6.28;;;5.80;99.90;;;;;;5011909;28;20040;-84
2020/12/02 02:44:48;;;;;;;12.73;6.53;;;5.80;99.90;;;;;;5027974;28;20029;-84
2020/12/02 02:47:13;;;;;;;14.57;5.90;;;5.70;99.90;;;;;;5028116;28;20045;-84
2020/12/02 02:49:39;;;;;;;14.93;6.45;;;5.80;99.90;;;;;;5011673;28;20033;-83
2020/12/02 02:52:04;;;;;;;13.02;4.80;;;5.80;99.90;;;;;;5011772;28;20033;-83
2020/12/02 02:54:31;;;;;;;15.65;5.00;;;5.70;99.90;;;;;;5011580;28;20032;-86
2020/12/02 02:56:56;;;;;;;14.02;5.88;;;5.70;99.90;;;;;;5011376;28;20048;-83
2020/12/02 02:59:22;;;;;;;15.90;5.43;;;5.70;99.90;;;;;;5011447;28;20053;-83
2020/12/02 03:01:47;;;;;;;13.35;5.45;;;5.70;99.90;;;;;;5011512;28;20397;-86
2020/12/02 03:04:13;;;;;;;19.25;5.45;;;5.70;99.90;;;;;;5011072;28;20029;-84
2020/12/02 03:06:39;;;;;;;13.70;5.13;;;5.80;99.90;;;;;;5044093;23;20053;-82
2020/12/02 03:09:06;;;;;;;12.80;5.28;;;5.70;99.90;;;;;;5047833;28;20033;-84
2020/12/02 03:11:34;;;;;;;12.02;4.72;;;5.70;99.90;;;;;;5047722;28;20061;-83
2020/12/02 03:13:59;;;;;;;11.63;3.90;;;5.80;99.90;;;;;;5047830;28;20057;-83
2020/12/02 03:16:46;;;;;;;9.95;4.35;;;5.70;99.90;;;;;;5030996;28;20036;-84
2020/12/02 03:19:31;;;;;;;13.15;5.18;;;5.70;99.90;;;;;;5047664;28;20034;-84
2020/12/02 03:22:03;;;;;;;11.65;4.10;;;5.70;99.90;;;;;;5030996;28;20029;-82
2020/12/02 03:24:30;;;;;;;16.63;4.75;;;5.70;99.90;;;;;;5047407;28;20124;-85
2020/12/02 03:26:57;;;;;;;10.90;4.22;;;5.70;99.90;;;;;;5047418;28;20029;-84
2020/12/02 03:29:24;;;;;;;11.10;4.03;;;5.70;99.90;;;;;;5047341;28;20174;-84
2020/12/02 03:31:50;;;;;;;8.75;3.67;;;5.70;99.90;;;;;;5047240;28;20037;-84
2020/12/02 03:34:19;;;;;;;10.57;3.75;;;5.70;99.90;;;;;;5048257;28;20064;-83
2020/12/02 03:36:48;;;;;;;10.32;3.78;;;5.70;99.90;;;;;;5046867;28;20034;-85
2020/12/02 03:39:15;;;;;;;8.77;3.85;;;5.70;99.90;;;;;;5047288;28;20056;-83
2020/12/02 03:41:44;;;;;;;10.38;4.07;;;5.70;99.90;;;;;;5047195;28;20029;-84
2020/12/02 03:44:11;;;;;;;11.77;3.28;;;5.70;99.90;;;;;;5047121;28;20055;-85
2020/12/02 03:46:36;;;;;;;11.07;3.63;;;5.70;99.90;;;;;;5062813;28;20056;-82
2020/12/02 03:49:03;;;;;;;12.65;4.05;;;5.70;99.90;;;;;;5047118;28;20026;-85
2020/12/02 03:51:30;;;;;;;9.45;3.85;;;5.70;99.90;;;;;;5046766;28;20040;-85
2020/12/02 03:53:56;;;;;;;10.02;4.05;;;5.70;99.90;;;;;;5046927;28;20041;-82
2020/12/02 03:56:22;;;;;;;15.30;5.78;;;5.70;99.90;;;;;;5046806;28;20136;-84
2020/12/02 03:58:49;;;;;;;18.67;7.05;;;5.70;99.90;;;;;;5046950;28;20137;-83
2020/12/02 04:01:16;;;;;;;15.50;6.07;;;5.70;99.90;;;;;;5046568;28;20072;-83
2020/12/02 04:03:42;;;;;;;19.40;7.72;;;5.70;99.90;;;;;;5046763;28;20173;-83
2020/12/02 04:06:09;;;;;;;18.98;7.53;;;5.70;99.90;;;;;;5046237;28;20283;-83
2020/12/02 04:08:39;;;;;;;19.70;8.80;;;5.70;99.90;;;;;;5029892;28;20029;-84
2020/12/02 04:11:05;;;;;;;23.02;9.20;;;5.70;99.90;;;;;;5035146;28;20044;-84
2020/12/02 04:13:32;;;;;;;23.23;9.23;;;5.70;99.90;;;;;;5010045;28;20482;-84
2020/12/02 04:15:58;;;;;;;24.40;9.98;;;5.70;99.90;;;;;;5044157;28;20129;-84
2020/12/02 04:18:24;;;;;;;22.42;9.52;;;5.60;99.90;;;;;;5063019;28;20177;-86
2020/12/02 04:20:49;;;;;;;22.80;8.10;;;5.70;99.90;;;;;;5046338;28;20105;-84
2020/12/02 04:23:15;;;;;;;20.55;8.82;;;5.70;99.90;;;;;;5031052;28;20091;-84
2020/12/02 04:25:41;;;;;;;23.65;9.20;;;5.60;99.90;;;;;;5046136;28;20025;-84
2020/12/02 04:28:06;;;;;;;23.67;7.53;;;5.60;99.90;;;;;;5046089;28;20178;-84
2020/12/02 04:30:32;;;;;;;19.75;7.25;;;5.60;99.90;;;;;;5045887;28;20052;-84
2020/12/02 04:32:57;;;;;;;21.40;7.65;;;5.60;99.90;;;;;;5029609;28;20052;-84
2020/12/02 04:35:23;;;;;;;19.33;8.15;;;5.60;99.90;;;;;;5045993;28;20034;-85
2020/12/02 04:37:49;;;;;;;19.48;7.45;;;5.60;99.90;;;;;;5045741;28;20048;-84
2020/12/02 04:40:25;;;;;;;17.70;6.95;;;5.60;99.90;;;;;;5045568;28;20031;-86
2020/12/02 04:43:00;;;;;;;17.63;7.13;;;5.60;99.90;;;;;;5045918;28;20129;-84
2020/12/02 04:45:29;;;;;;;17.42;6.63;;;5.60;99.90;;;;;;5045699;28;20485;-85
2020/12/02 04:47:59;;;;;;;15.82;7.03;;;5.60;99.90;;;;;;5045957;28;20093;-85
2020/12/02 04:50:26;;;;;;;;;;;5.60;99.90;;;;;;5046060;28;20038;-85
2020/12/02 04:53:05;;;;;;;18.42;6.50;;;5.60;99.90;;;;;;5062160;28;19920;-84
2020/12/02 04:55:31;;;;;;;17.40;6.20;;;5.60;99.90;;;;;;5045336;28;20037;-85
2020/12/02 04:57:57;;;;;;;13.70;5.47;;;5.60;99.90;;;;;;5044506;28;20052;-85
2020/12/02 05:00:32;;;;;;;18.98;6.65;;;5.60;99.90;;;;;;5045189;28;20034;-86
2020/12/02 05:03:10;;;;;;;16.95;6.88;;;5.60;99.90;;;;;;5045519;28;20060;-84
2020/12/02 05:05:36;;;;;;;16.80;6.07;;;5.60;99.90;;;;;;5045184;28;20077;-83
2020/12/02 05:08:25;;;;;;;15.45;6.38;;;5.60;99.90;;;;;;5045271;28;20052;-83
2020/12/02 05:10:52;;;;;;;15.05;5.72;;;5.60;99.90;;;;;;5044235;28;20036;-82
2020/12/02 05:13:18;;;;;;;14.73;5.85;;;5.60;99.90;;;;;;5061861;28;20129;-83
2020/12/02 05:15:44;;;;;;;15.13;5.65;;;5.60;99.90;;;;;;5045555;28;20034;-83
2020/12/02 05:18:15;;;;;;;17.35;5.90;;;5.60;99.90;;;;;;5009205;28;20037;-83
2020/12/02 05:20:42;;;;;;;13.35;4.90;;;5.60;99.90;;;;;;5025119;28;20477;-83
2020/12/02 05:23:18;;;;;;;10.32;4.22;;;5.60;99.90;;;;;;5008639;28;20034;-83
2020/12/02 05:25:44;;;;;;;9.88;3.95;;;5.60;99.90;;;;;;5017566;28;20036;-83
2020/12/02 05:28:17;;;;;;;8.90;3.78;;;5.60;99.90;;;;;;5044831;28;20098;-83
2020/12/02 05:30:43;;;;;;;11.93;4.97;;;5.60;99.90;;;;;;5045138;28;20448;-84
2020/12/02 05:33:12;;;;;;;13.90;4.72;;;5.60;99.90;;;;;;5044837;28;20088;-83
2020/12/02 05:35:41;;;;;;;10.50;4.95;;;5.50;99.90;;;;;;5028219;28;20030;-83
2020/12/02 05:38:09;;;;;;;10.30;4.47;;;5.50;99.90;;;;;;5044877;28;20045;-83
2020/12/02 05:40:37;;;;;;;9.13;4.82;;;5.50;99.90;;;;;;5044682;28;20037;-83
2020/12/02 05:43:18;;;;;;;9.20;3.72;;;5.50;99.90;;;;;;5045056;28;20025;-83
2020/12/02 05:45:48;;;;;;;8.88;3.47;;;5.50;99.90;;;;;;5028580;28;20033;-83
2020/12/02 05:48:28;;;;;;;8.80;3.77;;;5.50;99.90;;;;;;5044805;28;20057;-83
2020/12/02 05:50:55;;;;;;;10.07;3.63;;;5.50;99.90;;;;;;5044953;28;20279;-83
2020/12/02 05:53:33;;;;;;;8.65;3.28;;;5.50;99.90;;;;;;5044921;28;20033;-83
2020/12/02 05:56:00;;;;;;;9.85;4.13;;;5.50;99.90;;;;;;5028075;28;20043;-83
2020/12/02 05:58:31;;;;;;;10.25;3.75;;;5.50;99.90;;;;;;5044996;28;20041;-83
2020/12/02 06:00:57;;;;;;;10.50;4.47;;;5.50;99.90;;;;;;5044665;28;20076;-84
2020/12/02 06:03:34;;;;;;;10.45;4.13;;;5.50;99.90;;;;;;5044918;28;20132;-83
2020/12/02 06:06:04;;;;;;;8.63;4.00;;;5.50;99.90;;;;;;5045374;28;20045;-83
2020/12/02 06:08:32;;;;;;;;;;;5.50;99.90;;;;;;5045032;28;20052;-83
2020/12/02 06:11:17;;;;;;;9.23;3.75;;;5.50;99.90;;;;;;5037582;28;19909;-85
2020/12/02 06:13:53;;;;;;;8.88;3.50;;;5.50;99.90;;;;;;5047734;28;20026;-84
2020/12/02 06:16:46;;;;;;;8.32;3.15;;;5.50;99.90;;;;;;5048489;28;20026;-85
2020/12/02 06:19:23;;;;;;;12.07;3.80;;;5.50;99.90;;;;;;5048599;28;20052;-83
2020/12/02 06:21:52;;;;;;;6.90;3.17;;;5.40;99.90;;;;;;5048132;28;20030;-84
2020/12/02 06:24:44;;;;;;;8.63;3.78;;;5.50;99.90;;;;;;5048311;28;20029;-83
2020/12/02 06:27:15;;;;;;;9.38;4.47;;;5.50;99.90;;;;;;5048377;28;20099;-83
2020/12/02 06:29:47;;;;;;;8.70;3.97;;;5.40;99.90;;;;;;5048325;28;20034;-84
2020/12/02 06:32:22;;;;;;;9.52;4.57;;;5.40;99.90;;;;;;5048363;28;20029;-84
2020/12/02 06:34:50;;;;;;;9.90;4.50;;;5.40;99.90;;;;;;5048052;28;20060;-84
2020/12/02 06:37:22;;;;;;;7.95;3.45;;;5.40;99.90;;;;;;5047885;28;20045;-83
2020/12/02 06:39:56;;;;;;;10.32;5.13;;;5.40;99.90;;;;;;5045769;28;20025;-83
2020/12/02 06:42:39;;;;;;;8.63;3.83;;;5.40;99.90;;;;;;5047873;28;20038;-83
2020/12/02 06:45:23;;;;;;;8.23;3.88;;;5.40;99.90;;;;;;5031445;28;20091;-83
2020/12/02 06:47:49;;;;;;;8.00;3.70;;;5.40;99.90;;;;;;5031154;28;20040;-83
2020/12/02 06:50:21;;;;;;;9.93;4.30;;;5.40;99.90;;;;;;5047675;28;20033;-83
2020/12/02 06:52:47;;;;;;;9.40;4.13;;;5.40;99.90;;;;;;5018389;28;20045;-82
2020/12/02 06:55:22;;;;;;;9.32;4.40;;;5.40;99.90;;;;;;5042798;28;20097;-83
2020/12/02 06:58:04;;;;;;;10.38;3.75;;;5.40;99.90;;;;;;5023643;28;20534;-83
2020/12/02 07:00:42;;;;;;;9.43;4.40;;;5.40;99.90;;;;;;5027556;28;20030;-82
2020/12/02 07:03:23;;;;;;;10.82;4.70;;;5.40;99.90;;;;;;5027600;28;20540;-83
2020/12/02 07:05:51;;;;;;;9.55;4.30;;;5.40;99.90;;;;;;5027118;28;20050;-83
2020/12/02 07:08:25;;;;;;;10.77;4.07;;;5.40;99.90;;;;;;5027212;28;20041;-82
2020/12/02 07:11:05;;;;;;;12.52;4.35;;;5.30;99.90;;;;;;5033523;28;20093;-83
2020/12/02 07:13:36;;;;;;;9.43;4.47;;;5.30;99.90;;;;;;5027479;28;20040;-83
2020/12/02 07:16:09;;;;;;;10.02;4.43;;;5.40;99.90;;;;;;5047181;28;20037;-83
2020/12/02 07:18:34;;;;;;;10.05;5.22;;;5.30;99.90;;;;;;5046890;28;20132;-83
2020/12/02 07:21:10;;;;;;;9.75;4.60;;;5.30;99.90;;;;;;5045946;28;20033;-83
2020/12/02 07:23:36;;;;;;;9.85;4.57;;;5.30;99.90;;;;;;5047393;28;20048;-82
2020/12/02 07:26:02;;;;;;;13.77;5.72;;;5.30;99.90;;;;;;5047090;28;20033;-83
2020/12/02 07:28:27;;;;;;;11.85;4.93;;;5.30;99.90;;;;;;5047410;28;20034;-83
2020/12/02 07:30:53;;;;;;;11.55;4.43;;;5.30;99.90;;;;;;5046968;28;20121;-83
2020/12/02 07:33:23;;;;;;;13.57;5.07;;;5.30;99.90;;;;;;5047527;28;20033;-84
2020/12/02 07:36:07;;;;;;;9.80;4.32;;;5.30;99.90;;;;;;5048875;28;20030;-83
2020/12/02 07:38:33;;;;;;;13.15;5.68;;;5.30;99.90;;;;;;5048114;28;20048;-82
2020/12/02 07:41:11;;;;;;;11.23;5.25;;;5.40;99.90;;;;;;5046949;28;20034;-82
2020/12/02 07:43:40;;;;;;;11.88;5.28;;;5.40;99.90;;;;;;5046853;28;20076;-83
2020/12/02 07:46:06;;;;;;;10.07;5.25;;;5.40;99.90;;;;;;5046780;28;20025;-83
2020/12/02 07:48:32;;;;;;;13.88;5.78;;;5.40;99.90;;;;;;5046923;28;20041;-83
2020/12/02 07:51:09;;;;;;;10.98;4.95;;;5.30;99.90;;;;;;5046694;28;20040;-83
2020/12/02 07:53:39;;;;;;;12.18;5.43;;;5.40;99.90;;;;;;5046864;28;20034;-83
2020/12/02 07:56:12;;;;;;;12.27;5.05;;;5.40;99.90;;;;;;5046619;28;20033;-83
2020/12/02 07:58:42;;;;;;;9.85;4.75;;;5.40;99.90;;;;;;5046364;28;20049;-83
2020/12/02 08:01:41;;;;;;;13.02;5.13;;;5.40;99.90;;;;;;5046612;28;20022;-83
2020/12/02 08:07:57;;;;;;;11.63;4.60;;;5.40;99.90;;;;;;4948805;29;20058;-82
2020/12/02 08:10:25;;;;;;;11.45;5.07;;;5.40;99.90;;;;;;4961996;29;20122;-82
2020/12/02 08:12:50;;;;;;;13.40;5.10;;;5.40;99.90;;;;;;4931292;29;20099;-82
2020/12/02 08:15:16;;;;;;;14.05;5.63;;;5.40;99.90;;;;;;4961913;29;20047;-82
2020/12/02 08:18:11;;;;;;;11.40;5.43;;;5.30;99.90;;;;;;4930001;29;20051;-82
2020/12/02 08:20:37;;;;;;;14.18;4.97;;;5.40;99.90;;;;;;4945877;29;20039;-83
2020/12/02 08:23:21;;;;;;;13.90;5.43;;;5.40;99.90;;;;;;4961324;29;20047;-82
2020/12/02 08:26:20;;;;;;;8.75;4.85;;;5.40;99.90;;;;;;4945152;29;20477;-82
2020/12/02 08:28:51;;;;;;;11.68;4.65;;;5.40;99.90;;;;;;4929088;29;20068;-82
2020/12/02 08:31:26;;;;;;;11.75;5.50;;;5.40;99.90;;;;;;4929374;29;20173;-83
2020/12/02 08:34:25;;;;;;;12.75;5.15;;;5.40;99.90;;;;;;4944577;29;20103;-83
2020/12/02 08:37:10;;;;;;;12.25;5.35;;;5.40;99.90;;;;;;4944826;29;20043;-82
2020/12/02 08:39:37;;;;;;;11.90;5.28;;;5.40;99.90;;;;;;4944770;29;20039;-82
2020/12/02 08:42:03;;;;;;;14.13;5.85;;;5.40;99.90;;;;;;4944499;29;20532;-83
2020/12/02 08:44:30;;;;;;;13.73;5.95;;;5.50;99.90;;;;;;4928597;29;20056;-82
2020/12/02 08:47:01;;;;;;;12.32;5.03;;;5.50;99.90;;;;;;4944427;29;20047;-82
2020/12/02 08:49:30;;;;;;;13.27;5.63;;;5.50;99.90;;;;;;4944761;29;20536;-83
2020/12/02 08:51:56;;;;;;;13.63;5.43;;;5.50;99.90;;;;;;4944601;29;20126;-82
2020/12/02 08:54:24;;;;;;;15.43;6.53;;;5.50;99.90;;;;;;4928539;29;20280;-82
2020/12/02 08:56:49;;;;;;;12.25;5.60;;;5.50;99.90;;;;;;4928549;29;20051;-83
2020/12/02 08:59:18;;;;;;;14.38;6.63;;;5.50;99.90;;;;;;4928510;29;20035;-82
2020/12/02 09:01:44;;;;;;;11.38;5.88;;;5.50;99.90;;;;;;4944368;29;20058;-82
2020/12/02 09:04:30;;;;;;;12.15;5.93;;;5.50;99.90;;;;;;4928413;29;20055;-83
2020/12/02 09:06:55;;;;;;;18.05;7.00;;;5.50;99.90;;;;;;4926971;29;20063;-83
2020/12/02 09:09:21;;;;;;;13.88;5.85;;;5.50;99.90;;;;;;4927148;29;20048;-83
2020/12/02 09:11:47;;;;;;;13.80;6.50;;;5.50;99.90;;;;;;4929911;29;20036;-83
2020/12/02 09:14:12;;;;;;;17.50;7.03;;;5.50;99.90;;;;;;4911529;29;20028;-83
2020/12/02 09:16:40;;;;;;;13.65;6.07;;;5.50;99.90;;;;;;4927134;29;20024;-83
2020/12/02 09:19:09;;;;;;;18.52;8.15;;;5.50;99.90;;;;;;4927148;29;20051;-83
2020/12/02 09:21:35;;;;;;;14.30;6.10;;;5.50;99.90;;;;;;4926930;29;20036;-83
2020/12/02 09:24:01;;;;;;;15.85;6.93;;;5.50;99.90;;;;;;4911006;29;20474;-83
2020/12/02 09:26:29;;;;;;;18.35;7.32;;;5.50;99.90;;;;;;4927067;29;20032;-83
2020/12/02 09:28:56;;;;;;;16.17;7.25;;;5.50;99.90;;;;;;4926932;29;20032;-83
2020/12/02 09:31:23;;;;;;;21.95;7.78;;;5.60;99.90;;;;;;4927115;29;20043;-83
2020/12/02 09:33:50;;;;;;;20.30;8.32;;;5.60;99.90;;;;;;4926940;29;20032;-83
2020/12/02 09:36:18;;;;;;;17.27;7.18;;;5.60;99.90;;;;;;4926798;29;20046;-82
2020/12/02 09:38:46;;;;;;;18.90;7.22;;;5.60;99.90;;;;;;4926656;29;20139;-83
2020/12/02 09:41:39;;;;;;;17.80;7.65;;;5.60;99.90;;;;;;4926876;29;20046;-83
2020/12/02 09:44:08;;;;;;;17.65;7.05;;;5.60;99.90;;;;;;4927161;29;20040;-83
2020/12/02 09:46:37;;;;;;;19.80;7.22;;;5.60;99.90;;;;;;4959953;28;20036;-83
2020/12/02 09:49:05;;;;;;;19.15;7.95;;;5.60;99.90;;;;;;4928982;29;20043;-83
2020/12/02 09:51:32;;;;;;;19.35;7.40;;;5.60;99.90;;;;;;4943425;29;20036;-83
2020/12/02 09:53:58;;;;;;;22.05;7.35;;;5.70;99.90;;;;;;4943836;29;20036;-83
2020/12/02 09:56:27;;;;;;;16.67;5.85;;;5.60;99.90;;;;;;4927716;29;20036;-83
2020/12/02 09:58:56;;;;;;;17.95;6.88;;;5.60;99.90;;;;;;4959508;29;20048;-83
2020/12/02 10:01:42;;;;;;;20.17;7.80;;;5.70;99.90;;;;;;4943179;29;20075;-83
2020/12/02 10:04:46;;;;;;;17.75;7.35;;;5.60;99.90;;;;;;4927544;29;20035;-82
2020/12/02 10:07:23;;;;;;;18.65;6.63;;;5.70;99.90;;;;;;4942537;29;20139;-83
2020/12/02 10:10:03;;;;;;;17.40;6.70;;;5.70;99.90;;;;;;4910620;29;20047;-82
2020/12/02 10:12:47;;;;;;;15.88;7.55;;;5.70;99.90;;;;;;4927143;29;20035;-83
2020/12/02 10:15:41;;;;;;;18.35;7.18;;;5.70;99.90;;;;;;4938291;29;20043;-84
2020/12/02 10:18:30;;;;;;;17.70;6.75;;;5.70;99.90;;;;;;4931930;29;20110;-83
2020/12/02 10:21:10;;;;;;;17.40;7.28;;;5.70;99.90;;;;;;4945576;29;20102;-83
2020/12/02 10:23:48;;;;;;;23.13;7.63;;;5.70;99.90;;;;;;4913954;29;20039;-83
2020/12/02 10:26:32;;;;;;;21.50;6.72;;;5.60;99.90;;;;;;4913922;29;20082;-83
2020/12/02 10:29:02;;;;;;;17.55;6.78;;;5.60;99.90;;;;;;4913870;29;20076;-83
2020/12/02 10:31:36;;;;;;;18.83;7.35;;;5.60;99.90;;;;;;4945177;29;20050;-83
2020/12/02 10:34:20;;;;;;;18.30;7.00;;;5.60;99.90;;;;;;4929354;29;20047;-84
2020/12/02 10:36:56;;;;;;;20.85;7.90;;;5.60;99.90;;;;;;4913768;29;20039;-84
2020/12/02 10:39:30;;;;;;;26.27;7.70;;;5.70;99.90;;;;;;4929667;29;20044;-83
2020/12/02 10:42:02;;;;;;;19.75;8.43;;;5.60;99.90;;;;;;4913750;29;20103;-83
2020/12/02 10:44:52;;;;;;;19.95;7.38;;;5.60;99.90;;;;;;4924440;29;20075;-83
2020/12/02 10:47:55;;;;;;;23.50;8.52;;;5.60;99.90;;;;;;4962457;28;20043;-83
2020/12/02 10:50:24;;;;;;;18.02;6.35;;;5.60;99.90;;;;;;4962285;28;20046;-83
2020/12/02 10:52:52;;;;;;;20.10;7.88;;;5.60;99.90;;;;;;4946580;28;20408;-83
2020/12/02 10:55:21;;;;;;;20.58;7.82;;;5.60;99.90;;;;;;4946514;29;20044;-83
2020/12/02 10:58:03;;;;;;;19.25;8.25;;;5.70;99.90;;;;;;4949747;29;20032;-82
2020/12/02 11:00:32;;;;;;;18.60;6.65;;;5.70;99.90;;;;;;4949561;29;20032;-83
2020/12/02 11:03:15;;;;;;;19.00;7.50;;;5.70;99.90;;;;;;4949820;29;20110;-83
2020/12/02 11:05:44;;;;;;;20.52;8.32;;;5.70;99.90;;;;;;4950549;29;20083;-83
2020/12/02 11:08:28;;;;;;;19.13;7.57;;;5.70;99.90;;;;;;4965523;28;20066;-83
2020/12/02 11:11:06;;;;;;;21.38;7.75;;;5.80;99.90;;;;;;4965322;29;20036;-82
2020/12/02 11:14:13;;;;;;;16.75;6.82;;;5.80;99.90;;;;;;4965282;29;20098;-82
2020/12/02 11:17:02;;;;;;;19.35;8.05;;;5.80;99.90;;;;;;4879020;29;20032;-83
2020/12/02 11:19:39;;;;;;;22.52;7.25;;;5.80;99.90;;;;;;4928373;29;20407;-83
2020/12/02 11:22:35;;;;;;;16.45;8.15;;;5.70;99.90;;;;;;4914601;29;20060;-83
2020/12/02 11:25:11;;;;;;;23.67;8.70;;;5.70;99.90;;;;;;4914591;29;20031;-83
2020/12/02 11:27:37;;;;;;;17.58;7.57;;;5.70;99.90;;;;;;4930288;29;20088;-83
2020/12/02 11:30:12;;;;;;;24.10;8.73;;;5.70;99.90;;;;;;4929995;29;20056;-83
2020/12/02 11:32:58;;;;;;;19.52;8.05;;;5.70;99.90;;;;;;4930060;29;20107;-83
2020/12/02 11:35:51;;;;;;;18.88;8.25;;;5.70;99.90;;;;;;4913824;29;20051;-83
2020/12/02 11:38:42;;;;;;;19.92;7.13;;;5.70;99.90;;;;;;4914101;29;20086;-83
2020/12/02 11:41:32;;;;;;;21.75;8.00;;;5.70;99.90;;;;;;4914373;29;20040;-82
2020/12/02 11:44:06;;;;;;;18.67;8.18;;;5.80;99.90;;;;;;4914094;29;20040;-83
2020/12/02 11:46:33;;;;;;;17.92;7.65;;;5.80;99.90;;;;;;4913997;29;20055;-83
2020/12/02 11:49:25;;;;;;;18.67;7.00;;;5.80;99.90;;;;;;4914291;29;20099;-83
2020/12/02 11:52:28;;;;;;;18.20;7.35;;;5.80;99.90;;;;;;4929739;29;20099;-83
2020/12/02 11:54:54;;;;;;;18.95;7.63;;;5.90;99.90;;;;;;4929765;29;20036;-83
2020/12/02 11:57:21;;;;;;;17.42;7.20;;;5.90;99.90;;;;;;4929494;29;20063;-83
2020/12/02 11:59:46;;;;;;;18.80;8.00;;;5.90;99.90;;;;;;4929949;29;20164;-83
2020/12/02 12:02:12;;;;;;;19.63;7.10;;;5.90;99.90;;;;;;4913802;29;20481;-83
2020/12/02 12:07:43;;;;;;;21.05;8.13;;;5.80;99.90;;;;;;4967372;28;20125;-82
2020/12/02 12:10:26;;;;;;;;;;;5.90;99.90;;;;;;4952125;29;20414;-82
2020/12/02 12:13:22;;;;;;;17.23;5.93;;;5.90;99.90;;;;;;4951816;29;19961;-83
2020/12/02 12:16:00;;;;;;;14.75;5.85;;;5.90;99.90;;;;;;4968689;29;20050;-82
2020/12/02 12:18:38;;;;;;;18.42;6.72;;;5.90;99.90;;;;;;4967724;28;20114;-83
2020/12/02 12:21:28;;;;;;;17.90;6.60;;;5.80;99.90;;;;;;4951286;29;20030;-83
2020/12/02 12:23:57;;;;;;;17.92;7.03;;;5.90;99.90;;;;;;4967194;28;20105;-82
2020/12/02 12:26:24;;;;;;;17.90;6.97;;;5.80;99.90;;;;;;4951509;29;20035;-82
2020/12/02 12:28:50;;;;;;;19.70;7.97;;;5.80;99.90;;;;;;4951938;28;20404;-83
2020/12/02 12:31:45;;;;;;;21.35;8.38;;;5.80;99.90;;;;;;4967304;28;20035;-83
2020/12/02 12:34:36;;;;;;;21.85;8.35;;;5.80;99.90;;;;;;4952177;28;20070;-82
2020/12/02 12:37:05;;;;;;;18.98;7.60;;;5.80;99.90;;;;;;4951292;28;20041;-82
2020/12/02 12:39:46;;;;;;;17.33;6.78;;;5.80;99.90;;;;;;4950800;28;20047;-83
2020/12/02 12:42:15;;;;;;;19.27;7.30;;;5.80;99.90;;;;;;4951174;28;20035;-83
2020/12/02 12:44:41;;;;;;;20.10;8.15;;;5.90;99.90;;;;;;4950938;29;20155;-82
2020/12/02 12:47:24;;;;;;;19.88;8.77;;;5.90;99.90;;;;;;4966997;28;20078;-82
2020/12/02 12:49:52;;;;;;;19.73;8.40;;;5.90;99.90;;;;;;4950590;29;20098;-82
2020/12/02 12:52:21;;;;;;;25.98;10.48;;;5.90;99.90;;;;;;4950893;28;20035;-83
2020/12/02 12:54:47;;;;;;;20.95;8.75;;;5.90;99.90;;;;;;4966708;29;20054;-83
2020/12/02 12:57:16;;;;;;;24.55;10.35;;;5.90;99.90;;;;;;4950740;28;20031;-83
2020/12/02 12:59:42;;;;;;;24.23;9.82;;;5.90;99.90;;;;;;4966784;29;20364;-81
2020/12/02 13:02:23;;;;;;;19.42;9.00;;;5.90;99.90;;;;;;4950507;28;20035;-82
2020/12/02 13:04:49;;;;;;;24.17;10.40;;;5.90;99.90;;;;;;4950248;29;20043;-84
2020/12/02 13:07:24;;;;;;;23.48;9.65;;;5.90;99.90;;;;;;4950705;29;20035;-83
2020/12/02 13:10:10;;;;;;;28.17;11.52;;;5.90;99.90;;;;;;4966246;29;20038;-83
2020/12/02 13:12:45;;;;;;;27.40;11.25;;;5.90;99.90;;;;;;4950708;29;20061;-83
2020/12/02 13:15:38;;;;;;;27.23;11.70;;;5.90;99.90;;;;;;4966347;29;20101;-83
2020/12/02 13:18:14;;;;;;;27.33;11.52;;;5.90;99.90;;;;;;4950541;29;20039;-82
2020/12/02 13:21:18;;;;;;;24.08;10.80;;;5.80;99.90;;;;;;4949478;29;20035;-83
2020/12/02 13:23:51;;;;;;;25.95;12.13;;;5.80;99.90;;;;;;4950319;29;20107;-83
2020/12/02 13:26:18;;;;;;;28.63;12.48;;;5.80;99.90;;;;;;4950376;29;20055;-84